• Join FlightAware (Why Join?)
  • Login
  • US Flag 
04:31AM EDT


 

Airport Tracker/Info


-or-


 

Live Flight TrackerFlight Track Log ✈ N828KT ✈ 01-Jul-2013 ✈ PATK / TKA - PANC

Flight Track Log - Related Links

Times and Time Zones

All times are in EDT time to prevent confusion due to time zone crossing. See the N828KT flight status page for this flight to view local times or setup timezone preferences in your user account.

Time Position Orientation Groundspeed Altitude Reporting Facility
EDT Latitude Longitude Course Direction KTS MPH feet Rate Location/Type
03:51PM 62.3333 -150.1000 175° South 120 138 2,300  Level Anchorage Center
03:52PM 62.3000 -150.1000 180° South 110 127 3,400 840 Climbing Anchorage Center
03:53PM 62.2667 -150.1000 180° South 120 138 4,100 300 Climbing Anchorage Center
03:54PM 62.2167 -150.0833 171° South 140 161 4,100 -60 Level Anchorage Center
03:55PM 62.1833 -150.0667 167° South 150 173 4,000 -60 Descending Anchorage Center
03:56PM 62.0520 -150.0473 175° South  Level FlightAware Approximate
03:56PM 62.1333 -150.0500 171° South 150 173 4,000  Level Anchorage Center
03:57PM 62.1000 -150.0333 167° South 150 173 4,000  Level Anchorage Center
03:58PM 62.0500 -150.0333 180° South 150 173 4,100  Climbing Anchorage Center
03:59PM 62.0167 -150.0333 180° South 150 173 4,000 -60 Descending Anchorage Center
04:00PM 61.9667 -150.0167 171° South 150 173 4,000  Level Anchorage Center
04:01PM 61.9333 -150.0000 167° South 150 173 4,000  Level Anchorage Center
04:03PM 61.8548 -149.9944 178° South  Level FlightAware Approximate
04:10PM 61.5434 -149.9685 182° South  Level FlightAware Approximate
04:11PM 61.4990 -149.9719 182° South  Level FlightAware Approximate
04:12PM 61.4545 -149.9753 182° South  Level FlightAware Approximate
04:13PM 61.4100 -149.9787 182° South  Level FlightAware Approximate
04:14PM 61.3656 -149.9821 182° South  Level FlightAware Approximate
04:15PM 61.3211 -149.9833 180° South  Level FlightAware Approximate
04:16PM 61.2766 -149.9833 180° South  Level FlightAware Approximate
04:17PM 61.2321 -149.9833 180° South  Level FlightAware Approximate
04:18PM 61.1876 -149.9833 180° South  Level FlightAware Approximate
04:19PM 61.1667 -149.9833 180° South  Level FlightAware Approximate
04:20PM 61.1741 -149.9982 180° South  Level Estimated
04:21PM 61.1741 -149.9982 180° South  Level Estimated
04:22PM 61.1741 -149.9982 180° South  Level Estimated
04:23PM 61.1741 -149.9982 180° South  Level Estimated
04:24PM 61.1741 -149.9982 180° South  Level Estimated
04:25PM 61.1741 -149.9982 180° South  Level Estimated
04:26PM 61.1741 -149.9982 180° South  Level Estimated
04:27PM 61.1741 -149.9982 180° South  Level Estimated
04:28PM 61.1741 -149.9982 180° South  Level Estimated
04:29PM 61.1741 -149.9982 180° South  Level Estimated
04:30PM 61.1741 -149.9982 180° South  Level Estimated
04:31PM 61.1741 -149.9982 180° South  Level Estimated